sensor_id;sensor_type;location;lat;lon;timestamp;temperature;humidity
820;DHT22;392;48.838;2.322;2023-07-31T00:01:24;23.80;26.10
820;DHT22;392;48.838;2.322;2023-07-31T00:03:51;23.70;26.10
820;DHT22;392;48.838;2.322;2023-07-31T00:06:20;23.70;26.10
820;DHT22;392;48.838;2.322;2023-07-31T00:08:47;23.60;26.40
820;DHT22;392;48.838;2.322;2023-07-31T00:11:14;23.60;26.20
820;DHT22;392;48.838;2.322;2023-07-31T00:13:41;23.60;26.10
820;DHT22;392;48.838;2.322;2023-07-31T00:16:09;23.60;26.60
820;DHT22;392;48.838;2.322;2023-07-31T00:18:36;23.50;26.60
820;DHT22;392;48.838;2.322;2023-07-31T00:21:03;23.40;26.50
820;DHT22;392;48.838;2.322;2023-07-31T00:23:32;23.30;26.90
820;DHT22;392;48.838;2.322;2023-07-31T00:25:59;23.30;27.10
820;DHT22;392;48.838;2.322;2023-07-31T00:28:26;23.40;26.80
820;DHT22;392;48.838;2.322;2023-07-31T00:30:54;23.40;26.80
820;DHT22;392;48.838;2.322;2023-07-31T00:33:25;23.50;26.70
820;DHT22;392;48.838;2.322;2023-07-31T00:35:52;23.50;26.60
820;DHT22;392;48.838;2.322;2023-07-31T00:38:19;23.50;26.60
820;DHT22;392;48.838;2.322;2023-07-31T00:40:48;23.50;26.60
820;DHT22;392;48.838;2.322;2023-07-31T00:43:15;23.60;26.60
820;DHT22;392;48.838;2.322;2023-07-31T00:45:43;23.70;26.20
820;DHT22;392;48.838;2.322;2023-07-31T00:48:11;23.70;26.20
820;DHT22;392;48.838;2.322;2023-07-31T00:50:39;23.70;26.10
820;DHT22;392;48.838;2.322;2023-07-31T00:53:06;23.70;26.00
820;DHT22;392;48.838;2.322;2023-07-31T00:55:34;23.80;25.90
820;DHT22;392;48.838;2.322;2023-07-31T00:58:02;23.80;25.80
820;DHT22;392;48.838;2.322;2023-07-31T01:00:30;23.80;25.60
820;DHT22;392;48.838;2.322;2023-07-31T01:02:57;23.70;25.70
820;DHT22;392;48.838;2.322;2023-07-31T01:05:33;23.70;25.80
820;DHT22;392;48.838;2.322;2023-07-31T01:08:12;23.70;26.00
820;DHT22;392;48.838;2.322;2023-07-31T01:10:48;23.70;25.80
820;DHT22;392;48.838;2.322;2023-07-31T01:13:20;23.70;26.10
820;DHT22;392;48.838;2.322;2023-07-31T01:15:48;23.70;25.90
820;DHT22;392;48.838;2.322;2023-07-31T01:18:15;23.60;25.90
820;DHT22;392;48.838;2.322;2023-07-31T01:20:42;23.70;25.40
820;DHT22;392;48.838;2.322;2023-07-31T01:23:36;23.60;25.70
820;DHT22;392;48.838;2.322;2023-07-31T01:26:19;23.60;25.70
820;DHT22;392;48.838;2.322;2023-07-31T01:28:53;23.70;25.20
820;DHT22;392;48.838;2.322;2023-07-31T01:31:24;23.60;25.60
820;DHT22;392;48.838;2.322;2023-07-31T01:33:54;23.60;25.70
820;DHT22;392;48.838;2.322;2023-07-31T01:36:25;23.70;25.60
820;DHT22;392;48.838;2.322;2023-07-31T01:38:57;23.70;25.50
820;DHT22;392;48.838;2.322;2023-07-31T01:41:27;23.60;25.70
820;DHT22;392;48.838;2.322;2023-07-31T01:43:54;23.60;25.60
820;DHT22;392;48.838;2.322;2023-07-31T01:46:23;23.60;25.60
820;DHT22;392;48.838;2.322;2023-07-31T01:48:50;23.60;25.50
820;DHT22;392;48.838;2.322;2023-07-31T01:51:18;23.60;25.60
820;DHT22;392;48.838;2.322;2023-07-31T01:53:45;23.70;25.40
820;DHT22;392;48.838;2.322;2023-07-31T01:56:13;23.60;25.30
820;DHT22;392;48.838;2.322;2023-07-31T01:58:42;23.60;25.00
820;DHT22;392;48.838;2.322;2023-07-31T02:01:09;23.60;25.30
820;DHT22;392;48.838;2.322;2023-07-31T02:03:36;23.50;25.40
820;DHT22;392;48.838;2.322;2023-07-31T02:06:03;23.50;25.60
820;DHT22;392;48.838;2.322;2023-07-31T02:08:31;23.50;25.30
820;DHT22;392;48.838;2.322;2023-07-31T02:10:58;23.60;25.40
820;DHT22;392;48.838;2.322;2023-07-31T02:13:25;23.60;25.20
820;DHT22;392;48.838;2.322;2023-07-31T02:15:54;23.60;24.90
820;DHT22;392;48.838;2.322;2023-07-31T02:18:21;23.60;25.20
820;DHT22;392;48.838;2.322;2023-07-31T02:20:49;23.50;25.10
820;DHT22;392;48.838;2.322;2023-07-31T02:23:17;23.60;25.20
820;DHT22;392;48.838;2.322;2023-07-31T02:25:45;23.60;25.00
820;DHT22;392;48.838;2.322;2023-07-31T02:28:13;23.60;24.70
820;DHT22;392;48.838;2.322;2023-07-31T02:30:44;23.60;24.40
820;DHT22;392;48.838;2.322;2023-07-31T02:33:15;23.50;25.00
820;DHT22;392;48.838;2.322;2023-07-31T02:35:42;23.40;25.20
820;DHT22;392;48.838;2.322;2023-07-31T02:38:09;23.40;25.30
820;DHT22;392;48.838;2.322;2023-07-31T02:40:37;23.40;25.10
820;DHT22;392;48.838;2.322;2023-07-31T02:43:04;23.40;25.20
820;DHT22;392;48.838;2.322;2023-07-31T02:45:31;23.40;25.00
820;DHT22;392;48.838;2.322;2023-07-31T02:47:59;23.40;24.90
820;DHT22;392;48.838;2.322;2023-07-31T02:50:27;23.40;24.40
820;DHT22;392;48.838;2.322;2023-07-31T02:52:55;23.40;24.90
820;DHT22;392;48.838;2.322;2023-07-31T02:55:22;23.40;24.90
820;DHT22;392;48.838;2.322;2023-07-31T02:57:49;23.40;24.70
820;DHT22;392;48.838;2.322;2023-07-31T03:00:18;23.40;24.60
820;DHT22;392;48.838;2.322;2023-07-31T03:02:46;23.40;24.90
820;DHT22;392;48.838;2.322;2023-07-31T03:05:13;23.40;24.70
820;DHT22;392;48.838;2.322;2023-07-31T03:07:42;23.40;24.50
820;DHT22;392;48.838;2.322;2023-07-31T03:10:10;23.40;24.60
820;DHT22;392;48.838;2.322;2023-07-31T03:12:38;23.30;24.10
820;DHT22;392;48.838;2.322;2023-07-31T03:15:06;23.20;24.90
820;DHT22;392;48.838;2.322;2023-07-31T03:17:34;23.10;25.10
820;DHT22;392;48.838;2.322;2023-07-31T03:20:01;23.20;25.00
820;DHT22;392;48.838;2.322;2023-07-31T03:22:28;23.30;24.60
820;DHT22;392;48.838;2.322;2023-07-31T03:24:57;23.30;24.90
820;DHT22;392;48.838;2.322;2023-07-31T03:27:25;23.20;24.70
820;DHT22;392;48.838;2.322;2023-07-31T03:29:52;23.10;24.70
820;DHT22;392;48.838;2.322;2023-07-31T03:32:19;23.00;25.10
820;DHT22;392;48.838;2.322;2023-07-31T03:34:47;23.00;24.80
820;DHT22;392;48.838;2.322;2023-07-31T03:37:14;23.00;25.20
820;DHT22;392;48.838;2.322;2023-07-31T03:39:41;23.00;25.60
820;DHT22;392;48.838;2.322;2023-07-31T03:42:10;23.10;25.30
820;DHT22;392;48.838;2.322;2023-07-31T03:44:37;23.00;24.90
820;DHT22;392;48.838;2.322;2023-07-31T03:47:05;23.00;24.90
820;DHT22;392;48.838;2.322;2023-07-31T03:49:32;23.00;25.10
820;DHT22;392;48.838;2.322;2023-07-31T03:51:59;23.00;25.20
820;DHT22;392;48.838;2.322;2023-07-31T03:54:27;22.90;25.20
820;DHT22;392;48.838;2.322;2023-07-31T03:56:55;23.00;25.30
820;DHT22;392;48.838;2.322;2023-07-31T03:59:23;23.00;25.20
820;DHT22;392;48.838;2.322;2023-07-31T04:01:51;23.10;24.50
820;DHT22;392;48.838;2.322;2023-07-31T04:04:18;23.20;24.50
820;DHT22;392;48.838;2.322;2023-07-31T04:06:45;23.30;24.20
820;DHT22;392;48.838;2.322;2023-07-31T04:09:13;23.30;24.20
820;DHT22;392;48.838;2.322;2023-07-31T04:11:40;23.30;24.00
820;DHT22;392;48.838;2.322;2023-07-31T04:14:08;23.40;23.80
820;DHT22;392;48.838;2.322;2023-07-31T04:16:37;23.30;23.80
820;DHT22;392;48.838;2.322;2023-07-31T04:19:04;23.30;24.00
820;DHT22;392;48.838;2.322;2023-07-31T04:21:31;23.30;23.60
820;DHT22;392;48.838;2.322;2023-07-31T04:23:58;23.30;23.60
820;DHT22;392;48.838;2.322;2023-07-31T04:28:53;23.10;23.60
820;DHT22;392;48.838;2.322;2023-07-31T04:31:20;23.10;23.50
820;DHT22;392;48.838;2.322;2023-07-31T04:33:49;23.10;23.70
820;DHT22;392;48.838;2.322;2023-07-31T04:36:16;23.10;23.60
820;DHT22;392;48.838;2.322;2023-07-31T04:38:43;23.20;23.60
820;DHT22;392;48.838;2.322;2023-07-31T04:41:11;23.20;22.80
820;DHT22;392;48.838;2.322;2023-07-31T04:43:38;23.20;23.20
820;DHT22;392;48.838;2.322;2023-07-31T04:46:06;23.00;22.50
820;DHT22;392;48.838;2.322;2023-07-31T04:48:33;22.80;23.50
820;DHT22;392;48.838;2.322;2023-07-31T04:51:02;22.80;24.30
820;DHT22;392;48.838;2.322;2023-07-31T04:53:30;22.90;24.00
820;DHT22;392;48.838;2.322;2023-07-31T04:55:57;23.10;23.70
820;DHT22;392;48.838;2.322;2023-07-31T04:58:24;23.20;23.50
820;DHT22;392;48.838;2.322;2023-07-31T05:00:51;23.20;23.10
820;DHT22;392;48.838;2.322;2023-07-31T05:03:18;23.30;23.10
820;DHT22;392;48.838;2.322;2023-07-31T05:05:46;23.30;23.20
820;DHT22;392;48.838;2.322;2023-07-31T05:08:14;23.30;23.10
820;DHT22;392;48.838;2.322;2023-07-31T05:10:43;23.30;22.80
820;DHT22;392;48.838;2.322;2023-07-31T05:13:10;23.20;23.00
820;DHT22;392;48.838;2.322;2023-07-31T05:15:38;23.20;23.30
820;DHT22;392;48.838;2.322;2023-07-31T05:18:05;23.20;23.40
820;DHT22;392;48.838;2.322;2023-07-31T05:20:32;23.10;23.30
820;DHT22;392;48.838;2.322;2023-07-31T05:23:00;23.20;23.40
820;DHT22;392;48.838;2.322;2023-07-31T05:25:28;23.20;23.10
820;DHT22;392;48.838;2.322;2023-07-31T05:27:55;23.20;23.40
820;DHT22;392;48.838;2.322;2023-07-31T05:30:23;23.20;23.30
820;DHT22;392;48.838;2.322;2023-07-31T05:32:50;23.30;23.30
820;DHT22;392;48.838;2.322;2023-07-31T05:35:17;23.30;23.50
820;DHT22;392;48.838;2.322;2023-07-31T05:37:44;23.30;23.40
820;DHT22;392;48.838;2.322;2023-07-31T05:40:12;23.20;23.70
820;DHT22;392;48.838;2.322;2023-07-31T05:42:40;23.20;23.70
820;DHT22;392;48.838;2.322;2023-07-31T05:45:08;23.20;24.50
820;DHT22;392;48.838;2.322;2023-07-31T05:47:36;23.10;24.10
820;DHT22;392;48.838;2.322;2023-07-31T05:50:04;23.20;24.10
820;DHT22;392;48.838;2.322;2023-07-31T05:52:31;23.10;24.40
820;DHT22;392;48.838;2.322;2023-07-31T05:54:59;23.10;24.50
820;DHT22;392;48.838;2.322;2023-07-31T05:57:27;23.20;24.50
820;DHT22;392;48.838;2.322;2023-07-31T05:59:55;23.20;24.60
820;DHT22;392;48.838;2.322;2023-07-31T06:02:23;23.20;24.60
820;DHT22;392;48.838;2.322;2023-07-31T06:04:50;23.20;24.90
820;DHT22;392;48.838;2.322;2023-07-31T06:07:17;23.20;25.30
820;DHT22;392;48.838;2.322;2023-07-31T06:09:45;23.20;25.30
820;DHT22;392;48.838;2.322;2023-07-31T06:12:12;23.10;25.70
820;DHT22;392;48.838;2.322;2023-07-31T06:14:40;23.10;25.70
820;DHT22;392;48.838;2.322;2023-07-31T06:17:08;23.00;26.20
820;DHT22;392;48.838;2.322;2023-07-31T06:19:35;23.00;26.20
820;DHT22;392;48.838;2.322;2023-07-31T06:22:03;23.00;26.30
820;DHT22;392;48.838;2.322;2023-07-31T06:24:31;23.00;26.30
820;DHT22;392;48.838;2.322;2023-07-31T06:26:58;22.90;27.10
820;DHT22;392;48.838;2.322;2023-07-31T06:29:25;22.90;27.20
820;DHT22;392;48.838;2.322;2023-07-31T06:31:53;23.00;27.00
820;DHT22;392;48.838;2.322;2023-07-31T06:34:21;23.10;26.70
820;DHT22;392;48.838;2.322;2023-07-31T06:36:49;23.20;26.40
820;DHT22;392;48.838;2.322;2023-07-31T06:39:16;23.30;26.40
820;DHT22;392;48.838;2.322;2023-07-31T06:41:44;23.30;26.40
820;DHT22;392;48.838;2.322;2023-07-31T06:44:11;23.30;26.40
820;DHT22;392;48.838;2.322;2023-07-31T06:46:38;23.30;26.40
820;DHT22;392;48.838;2.322;2023-07-31T06:49:05;23.20;26.60
820;DHT22;392;48.838;2.322;2023-07-31T06:51:34;23.10;27.00
820;DHT22;392;48.838;2.322;2023-07-31T06:54:02;23.20;26.80
820;DHT22;392;48.838;2.322;2023-07-31T06:56:29;23.20;26.90
820;DHT22;392;48.838;2.322;2023-07-31T06:58:56;23.00;27.20
820;DHT22;392;48.838;2.322;2023-07-31T07:01:24;23.00;27.50
820;DHT22;392;48.838;2.322;2023-07-31T07:03:51;23.10;27.10
820;DHT22;392;48.838;2.322;2023-07-31T07:06:19;23.20;26.80
820;DHT22;392;48.838;2.322;2023-07-31T07:08:47;23.40;26.50
820;DHT22;392;48.838;2.322;2023-07-31T07:11:15;23.40;26.50
820;DHT22;392;48.838;2.322;2023-07-31T07:13:42;23.30;26.40
820;DHT22;392;48.838;2.322;2023-07-31T07:16:10;23.40;26.50
820;DHT22;392;48.838;2.322;2023-07-31T07:18:37;23.50;26.60
820;DHT22;392;48.838;2.322;2023-07-31T07:21:04;23.60;26.20
820;DHT22;392;48.838;2.322;2023-07-31T07:23:31;23.70;25.90
820;DHT22;392;48.838;2.322;2023-07-31T07:26:03;23.70;25.50
820;DHT22;392;48.838;2.322;2023-07-31T07:28:30;23.70;26.00
820;DHT22;392;48.838;2.322;2023-07-31T07:30:57;23.70;25.80
820;DHT22;392;48.838;2.322;2023-07-31T07:33:24;23.80;25.70
820;DHT22;392;48.838;2.322;2023-07-31T07:35:52;23.90;25.70
820;DHT22;392;48.838;2.322;2023-07-31T07:38:19;24.00;25.40
820;DHT22;392;48.838;2.322;2023-07-31T07:40:46;24.00;25.30
820;DHT22;392;48.838;2.322;2023-07-31T07:43:17;24.00;25.10
820;DHT22;392;48.838;2.322;2023-07-31T07:45:44;24.10;25.30
820;DHT22;392;48.838;2.322;2023-07-31T07:48:11;24.20;25.10
820;DHT22;392;48.838;2.322;2023-07-31T07:50:39;24.40;24.50
820;DHT22;392;48.838;2.322;2023-07-31T07:53:06;24.60;24.10
820;DHT22;392;48.838;2.322;2023-07-31T07:55:33;24.80;23.30
820;DHT22;392;48.838;2.322;2023-07-31T08:00:31;24.50;23.30
820;DHT22;392;48.838;2.322;2023-07-31T08:02:58;24.40;24.10
820;DHT22;392;48.838;2.322;2023-07-31T08:05:25;24.30;24.20
820;DHT22;392;48.838;2.322;2023-07-31T08:07:53;24.30;24.10
820;DHT22;392;48.838;2.322;2023-07-31T08:10:20;24.30;24.20
820;DHT22;392;48.838;2.322;2023-07-31T08:12:47;24.40;24.00
820;DHT22;392;48.838;2.322;2023-07-31T08:15:14;24.60;23.70
820;DHT22;392;48.838;2.322;2023-07-31T08:17:43;24.70;23.20
820;DHT22;392;48.838;2.322;2023-07-31T08:20:11;24.70;23.20
820;DHT22;392;48.838;2.322;2023-07-31T08:22:39;24.70;23.20
820;DHT22;392;48.838;2.322;2023-07-31T08:25:07;24.60;23.40
820;DHT22;392;48.838;2.322;2023-07-31T08:27:35;24.60;23.20
820;DHT22;392;48.838;2.322;2023-07-31T08:30:02;24.80;23.10
820;DHT22;392;48.838;2.322;2023-07-31T08:32:30;25.00;22.60
820;DHT22;392;48.838;2.322;2023-07-31T08:34:59;25.10;22.30
820;DHT22;392;48.838;2.322;2023-07-31T08:37:26;25.00;22.50
820;DHT22;392;48.838;2.322;2023-07-31T08:39:53;24.90;22.80
820;DHT22;392;48.838;2.322;2023-07-31T08:42:21;24.70;23.10
820;DHT22;392;48.838;2.322;2023-07-31T08:44:49;24.60;23.20
820;DHT22;392;48.838;2.322;2023-07-31T08:47:17;24.50;23.10
820;DHT22;392;48.838;2.322;2023-07-31T08:49:46;24.40;23.40
820;DHT22;392;48.838;2.322;2023-07-31T08:52:16;24.30;23.60
820;DHT22;392;48.838;2.322;2023-07-31T08:54:43;24.20;23.70
820;DHT22;392;48.838;2.322;2023-07-31T08:57:11;24.20;23.90
820;DHT22;392;48.838;2.322;2023-07-31T08:59:39;24.10;24.00
820;DHT22;392;48.838;2.322;2023-07-31T09:02:08;24.10;24.00
820;DHT22;392;48.838;2.322;2023-07-31T09:04:35;24.00;24.20
820;DHT22;392;48.838;2.322;2023-07-31T09:07:03;24.00;24.30
820;DHT22;392;48.838;2.322;2023-07-31T09:09:34;24.00;24.40
820;DHT22;392;48.838;2.322;2023-07-31T09:12:01;24.00;24.10
820;DHT22;392;48.838;2.322;2023-07-31T09:14:29;24.00;24.70
820;DHT22;392;48.838;2.322;2023-07-31T09:16:58;24.00;24.80
820;DHT22;392;48.838;2.322;2023-07-31T09:19:26;24.00;24.50
820;DHT22;392;48.838;2.322;2023-07-31T09:21:54;24.00;24.90
820;DHT22;392;48.838;2.322;2023-07-31T09:24:25;24.10;24.90
820;DHT22;392;48.838;2.322;2023-07-31T09:26:56;24.20;24.70
820;DHT22;392;48.838;2.322;2023-07-31T09:29:25;24.20;24.50
820;DHT22;392;48.838;2.322;2023-07-31T09:31:53;24.20;24.50
820;DHT22;392;48.838;2.322;2023-07-31T09:34:29;24.10;24.80
820;DHT22;392;48.838;2.322;2023-07-31T09:36:59;24.10;24.90
820;DHT22;392;48.838;2.322;2023-07-31T09:39:30;24.10;25.10
820;DHT22;392;48.838;2.322;2023-07-31T09:41:59;24.00;25.20
820;DHT22;392;48.838;2.322;2023-07-31T09:44:38;24.00;25.40
820;DHT22;392;48.838;2.322;2023-07-31T09:47:06;24.00;25.40
820;DHT22;392;48.838;2.322;2023-07-31T09:49:33;24.00;25.70
820;DHT22;392;48.838;2.322;2023-07-31T09:52:01;24.10;25.60
820;DHT22;392;48.838;2.322;2023-07-31T09:54:28;24.20;25.50
820;DHT22;392;48.838;2.322;2023-07-31T09:56:56;24.30;25.30
820;DHT22;392;48.838;2.322;2023-07-31T09:59:26;24.40;25.30
820;DHT22;392;48.838;2.322;2023-07-31T10:01:56;24.40;24.80
820;DHT22;392;48.838;2.322;2023-07-31T10:04:27;24.40;25.10
820;DHT22;392;48.838;2.322;2023-07-31T10:06:55;24.30;25.30
820;DHT22;392;48.838;2.322;2023-07-31T10:09:24;24.20;25.70
820;DHT22;392;48.838;2.322;2023-07-31T10:11:56;24.00;26.00
820;DHT22;392;48.838;2.322;2023-07-31T10:14:27;23.90;26.30
820;DHT22;392;48.838;2.322;2023-07-31T10:16:56;23.80;26.50
820;DHT22;392;48.838;2.322;2023-07-31T10:19:24;23.80;26.60
820;DHT22;392;48.838;2.322;2023-07-31T10:21:54;23.70;26.70
820;DHT22;392;48.838;2.322;2023-07-31T10:24:22;23.60;27.00
820;DHT22;392;48.838;2.322;2023-07-31T10:26:52;23.60;27.50
820;DHT22;392;48.838;2.322;2023-07-31T10:29:22;23.60;28.30
820;DHT22;392;48.838;2.322;2023-07-31T10:31:50;23.60;28.10
820;DHT22;392;48.838;2.322;2023-07-31T10:34:18;23.70;28.00
820;DHT22;392;48.838;2.322;2023-07-31T10:36:46;23.80;27.90
820;DHT22;392;48.838;2.322;2023-07-31T10:39:34;24.00;27.90
820;DHT22;392;48.838;2.322;2023-07-31T10:42:10;24.00;27.80
820;DHT22;392;48.838;2.322;2023-07-31T10:44:43;24.00;28.10
820;DHT22;392;48.838;2.322;2023-07-31T10:47:14;23.90;29.00
820;DHT22;392;48.838;2.322;2023-07-31T10:49:45;23.80;29.30
820;DHT22;392;48.838;2.322;2023-07-31T10:52:13;23.60;30.00
820;DHT22;392;48.838;2.322;2023-07-31T10:54:41;23.60;29.40
820;DHT22;392;48.838;2.322;2023-07-31T10:57:19;23.80;29.40
820;DHT22;392;48.838;2.322;2023-07-31T10:59:48;23.80;29.20
820;DHT22;392;48.838;2.322;2023-07-31T11:02:25;23.80;29.60
820;DHT22;392;48.838;2.322;2023-07-31T11:05:07;23.70;29.30
820;DHT22;392;48.838;2.322;2023-07-31T11:07:47;23.70;29.60
820;DHT22;392;48.838;2.322;2023-07-31T11:10:18;23.70;29.70
820;DHT22;392;48.838;2.322;2023-07-31T11:12:46;23.70;29.90
820;DHT22;392;48.838;2.322;2023-07-31T11:15:15;23.60;30.40
820;DHT22;392;48.838;2.322;2023-07-31T11:17:42;23.50;32.20
820;DHT22;392;48.838;2.322;2023-07-31T11:20:10;23.40;33.00
820;DHT22;392;48.838;2.322;2023-07-31T11:22:38;23.30;34.30
820;DHT22;392;48.838;2.322;2023-07-31T11:25:06;23.00;36.40
820;DHT22;392;48.838;2.322;2023-07-31T11:27:39;22.80;38.20
820;DHT22;392;48.838;2.322;2023-07-31T11:30:08;22.60;40.60
820;DHT22;392;48.838;2.322;2023-07-31T11:32:38;22.50;40.40
820;DHT22;392;48.838;2.322;2023-07-31T11:35:05;22.50;40.40
820;DHT22;392;48.838;2.322;2023-07-31T11:37:40;22.80;38.70
820;DHT22;392;48.838;2.322;2023-07-31T11:40:09;23.20;36.00
820;DHT22;392;48.838;2.322;2023-07-31T11:42:37;23.60;34.90
820;DHT22;392;48.838;2.322;2023-07-31T11:45:06;23.90;32.60
820;DHT22;392;48.838;2.322;2023-07-31T11:47:35;24.00;32.40
820;DHT22;392;48.838;2.322;2023-07-31T11:50:06;23.80;33.60
820;DHT22;392;48.838;2.322;2023-07-31T11:52:40;23.70;33.00
820;DHT22;392;48.838;2.322;2023-07-31T11:55:09;23.80;32.00
820;DHT22;392;48.838;2.322;2023-07-31T11:57:38;23.90;32.20
820;DHT22;392;48.838;2.322;2023-07-31T12:00:09;23.90;31.60
820;DHT22;392;48.838;2.322;2023-07-31T12:02:39;23.90;31.20
820;DHT22;392;48.838;2.322;2023-07-31T12:05:10;23.90;31.20
820;DHT22;392;48.838;2.322;2023-07-31T12:07:51;23.90;31.10
820;DHT22;392;48.838;2.322;2023-07-31T12:10:24;23.90;31.20
820;DHT22;392;48.838;2.322;2023-07-31T12:13:03;23.90;31.20
820;DHT22;392;48.838;2.322;2023-07-31T12:15:36;23.80;31.10
820;DHT22;392;48.838;2.322;2023-07-31T12:18:06;23.70;31.00
820;DHT22;392;48.838;2.322;2023-07-31T12:20:41;23.80;31.80
820;DHT22;392;48.838;2.322;2023-07-31T12:23:17;23.80;31.10
820;DHT22;392;48.838;2.322;2023-07-31T12:28:13;23.90;30.30
820;DHT22;392;48.838;2.322;2023-07-31T12:30:40;23.90;31.20
820;DHT22;392;48.838;2.322;2023-07-31T12:33:13;23.60;31.80
820;DHT22;392;48.838;2.322;2023-07-31T12:35:44;23.50;32.40
820;DHT22;392;48.838;2.322;2023-07-31T12:38:13;23.40;32.50
820;DHT22;392;48.838;2.322;2023-07-31T12:40:41;23.50;32.40
820;DHT22;392;48.838;2.322;2023-07-31T12:43:08;23.50;32.40
820;DHT22;392;48.838;2.322;2023-07-31T12:45:36;23.50;32.00
820;DHT22;392;48.838;2.322;2023-07-31T12:48:03;23.60;31.50
820;DHT22;392;48.838;2.322;2023-07-31T12:50:31;23.70;31.00
820;DHT22;392;48.838;2.322;2023-07-31T12:53:00;23.80;31.10
820;DHT22;392;48.838;2.322;2023-07-31T12:55:27;23.80;31.10
820;DHT22;392;48.838;2.322;2023-07-31T12:57:54;23.80;31.10
820;DHT22;392;48.838;2.322;2023-07-31T13:00:22;23.80;31.90
820;DHT22;392;48.838;2.322;2023-07-31T13:02:49;23.70;32.20
820;DHT22;392;48.838;2.322;2023-07-31T13:05:16;23.80;31.10
820;DHT22;392;48.838;2.322;2023-07-31T13:07:45;24.00;30.40
820;DHT22;392;48.838;2.322;2023-07-31T13:10:14;24.10;30.20
820;DHT22;392;48.838;2.322;2023-07-31T13:12:42;24.20;29.90
820;DHT22;392;48.838;2.322;2023-07-31T13:15:09;24.30;29.20
820;DHT22;392;48.838;2.322;2023-07-31T13:17:37;24.50;28.90
820;DHT22;392;48.838;2.322;2023-07-31T13:20:05;24.50;28.90
820;DHT22;392;48.838;2.322;2023-07-31T13:22:33;24.50;28.70
820;DHT22;392;48.838;2.322;2023-07-31T13:25:01;24.50;28.60
820;DHT22;392;48.838;2.322;2023-07-31T13:27:31;24.50;28.50
820;DHT22;392;48.838;2.322;2023-07-31T13:29:58;24.50;28.40
820;DHT22;392;48.838;2.322;2023-07-31T13:32:25;24.50;28.40
820;DHT22;392;48.838;2.322;2023-07-31T13:34:52;24.40;28.60
820;DHT22;392;48.838;2.322;2023-07-31T13:37:20;24.40;28.60
820;DHT22;392;48.838;2.322;2023-07-31T13:39:47;24.30;28.40
820;DHT22;392;48.838;2.322;2023-07-31T13:42:14;24.30;29.20
820;DHT22;392;48.838;2.322;2023-07-31T13:44:43;24.30;29.10
820;DHT22;392;48.838;2.322;2023-07-31T13:47:10;24.20;29.50
820;DHT22;392;48.838;2.322;2023-07-31T13:49:37;24.20;29.40
820;DHT22;392;48.838;2.322;2023-07-31T13:52:05;24.10;28.90
820;DHT22;392;48.838;2.322;2023-07-31T13:54:33;24.10;29.10
820;DHT22;392;48.838;2.322;2023-07-31T13:59:28;24.00;29.40
820;DHT22;392;48.838;2.322;2023-07-31T14:01:56;24.00;29.80
820;DHT22;392;48.838;2.322;2023-07-31T14:04:23;24.10;29.90
820;DHT22;392;48.838;2.322;2023-07-31T14:06:51;24.10;29.80
820;DHT22;392;48.838;2.322;2023-07-31T14:09:18;24.10;29.60
820;DHT22;392;48.838;2.322;2023-07-31T14:11:46;24.20;29.40
820;DHT22;392;48.838;2.322;2023-07-31T14:14:13;24.20;29.30
820;DHT22;392;48.838;2.322;2023-07-31T14:16:40;24.30;29.40
820;DHT22;392;48.838;2.322;2023-07-31T14:19:09;24.20;30.20
820;DHT22;392;48.838;2.322;2023-07-31T14:21:36;24.10;30.00
820;DHT22;392;48.838;2.322;2023-07-31T14:24:04;24.10;31.40
820;DHT22;392;48.838;2.322;2023-07-31T14:26:31;23.90;31.20
820;DHT22;392;48.838;2.322;2023-07-31T14:28:59;23.90;31.50
820;DHT22;392;48.838;2.322;2023-07-31T14:31:26;23.90;32.10
820;DHT22;392;48.838;2.322;2023-07-31T14:33:53;23.90;32.20
820;DHT22;392;48.838;2.322;2023-07-31T14:36:22;23.90;32.60
820;DHT22;392;48.838;2.322;2023-07-31T14:38:49;23.90;33.20
820;DHT22;392;48.838;2.322;2023-07-31T14:41:16;23.90;32.90
820;DHT22;392;48.838;2.322;2023-07-31T14:43:44;24.00;32.60
820;DHT22;392;48.838;2.322;2023-07-31T14:46:11;24.10;32.20
820;DHT22;392;48.838;2.322;2023-07-31T14:48:38;24.10;33.20
820;DHT22;392;48.838;2.322;2023-07-31T14:51:05;24.00;33.80
820;DHT22;392;48.838;2.322;2023-07-31T14:53:34;23.90;34.50
820;DHT22;392;48.838;2.322;2023-07-31T14:56:01;23.90;34.00
820;DHT22;392;48.838;2.322;2023-07-31T14:58:29;24.00;33.90
820;DHT22;392;48.838;2.322;2023-07-31T15:00:56;24.00;34.20
820;DHT22;392;48.838;2.322;2023-07-31T15:03:23;24.00;34.00
820;DHT22;392;48.838;2.322;2023-07-31T15:05:52;24.00;34.00
820;DHT22;392;48.838;2.322;2023-07-31T15:08:19;24.00;34.40
820;DHT22;392;48.838;2.322;2023-07-31T15:10:48;23.90;34.10
820;DHT22;392;48.838;2.322;2023-07-31T15:13:16;24.00;34.10
820;DHT22;392;48.838;2.322;2023-07-31T15:15:43;24.00;33.80
820;DHT22;392;48.838;2.322;2023-07-31T15:18:11;24.00;33.80
820;DHT22;392;48.838;2.322;2023-07-31T15:20:38;24.00;33.60
820;DHT22;392;48.838;2.322;2023-07-31T15:23:05;24.00;33.50
820;DHT22;392;48.838;2.322;2023-07-31T15:25:33;24.00;33.50
820;DHT22;392;48.838;2.322;2023-07-31T15:28:02;24.00;33.70
820;DHT22;392;48.838;2.322;2023-07-31T15:30:30;24.00;33.80
820;DHT22;392;48.838;2.322;2023-07-31T15:32:58;24.00;34.50
820;DHT22;392;48.838;2.322;2023-07-31T15:35:26;23.90;34.80
820;DHT22;392;48.838;2.322;2023-07-31T15:37:53;23.90;35.50
820;DHT22;392;48.838;2.322;2023-07-31T15:40:20;23.80;35.20
820;DHT22;392;48.838;2.322;2023-07-31T15:42:47;23.80;36.40
820;DHT22;392;48.838;2.322;2023-07-31T15:45:16;23.80;36.40
820;DHT22;392;48.838;2.322;2023-07-31T15:47:43;23.80;36.40
820;DHT22;392;48.838;2.322;2023-07-31T15:50:11;23.80;36.50
820;DHT22;392;48.838;2.322;2023-07-31T15:52:38;23.80;36.50
820;DHT22;392;48.838;2.322;2023-07-31T15:55:06;23.80;36.40
820;DHT22;392;48.838;2.322;2023-07-31T15:57:34;23.80;36.40
820;DHT22;392;48.838;2.322;2023-07-31T16:00:01;23.80;36.40
820;DHT22;392;48.838;2.322;2023-07-31T16:02:35;23.80;36.50
820;DHT22;392;48.838;2.322;2023-07-31T16:05:03;23.70;36.00
820;DHT22;392;48.838;2.322;2023-07-31T16:07:31;23.70;37.10
820;DHT22;392;48.838;2.322;2023-07-31T16:09:58;23.70;37.20
820;DHT22;392;48.838;2.322;2023-07-31T16:12:26;23.60;38.00
820;DHT22;392;48.838;2.322;2023-07-31T16:14:53;23.50;39.60
820;DHT22;392;48.838;2.322;2023-07-31T16:17:20;23.40;40.30
820;DHT22;392;48.838;2.322;2023-07-31T16:19:49;23.40;41.20
820;DHT22;392;48.838;2.322;2023-07-31T16:22:16;23.30;41.10
820;DHT22;392;48.838;2.322;2023-07-31T16:24:43;23.30;40.30
820;DHT22;392;48.838;2.322;2023-07-31T16:27:11;23.40;40.80
820;DHT22;392;48.838;2.322;2023-07-31T16:29:38;23.30;41.10
820;DHT22;392;48.838;2.322;2023-07-31T16:32:06;23.30;41.10
820;DHT22;392;48.838;2.322;2023-07-31T16:37:03;23.30;39.80
820;DHT22;392;48.838;2.322;2023-07-31T16:39:31;23.40;40.30
820;DHT22;392;48.838;2.322;2023-07-31T16:42:01;23.40;39.60
820;DHT22;392;48.838;2.322;2023-07-31T16:44:28;23.50;39.40
820;DHT22;392;48.838;2.322;2023-07-31T16:46:55;23.50;40.60
820;DHT22;392;48.838;2.322;2023-07-31T16:49:23;23.40;40.40
820;DHT22;392;48.838;2.322;2023-07-31T16:51:51;23.30;40.90
820;DHT22;392;48.838;2.322;2023-07-31T16:54:19;23.40;40.70